Balmaceda, Chile
Current Conditions -  °F | °C
As of 8:00 PM on Sunday 23 Nov 2014 (Local Time) from SCBA Reporting Station
Clear Clear  
Wind Chill: 38°   Ceiling: Unl
Heat Index: 46°   Visibility: 6mi
Dew Point: 36°   Wind: 23mph
Humidity: 66%   Direction: 310°NW
Pressure: 29.59"   Gusts: NA
Location:  45.92°S, 71.7°W
Report Text: SCBA 240000Z AUTO 31020KT CAVOK 08/02 Q1002
Loading
Personal Weather Stations






























Interactive Weather Map New forecast layout! Learn more

10-Day Weather Forecast

Advertisements
Track Severe Weather on mobile